Terminal Aerodrome Forecast
Issued by NWS Twin Cities, MN

Home | Current Version | Previous Version | Text Only | Print | Product List | Glossary On
Versions: 1 2 3 4 5 6 7 8 9 10 11 12 13 14 15 16
594
FTUS43 KMPX 300520
TAFEAU
TAF
KEAU 300520Z 3006/3106 07010KT P6SM VCSH BKN015 OVC022
     FM310200 05006KT P6SM OVC040=

USA.gov is the U.S. government's official web portal to all federal, state and local government web resources and services.